Time;durP1;ratioP1;P1;durP2;ratioP2;P2;SDS_P1;SDS_P2;PMS_P1;PMS_P2;Temp;Humidity;BMP_temperature;BMP_pressure;BME280_temperature;BME280_humidity;BME280_pressure;Samples;Min_cycle;Max_cycle;Signal;HPM_P1;HPM_P2
2022/01/07 00:00:15;;;;;;;;;;;;;;;-0.83;83.72;98672.19;1613504;87;24829;-83
2022/01/07 00:02:40;;;;;;;;;;;;;;;-0.86;83.70;98670.52;1613896;87;20222;-84
2022/01/07 00:05:13;;;;;;;;;;;;;;;-0.81;83.74;98669.13;1613980;87;26196;-84
2022/01/07 00:07:41;;;;;;;;;;;;;;;-0.78;83.71;98672.09;1615593;87;24721;-84
2022/01/07 00:10:09;;;;;;;;;;;;;;;-0.81;83.70;98670.41;1616606;87;20541;-84
2022/01/07 00:12:38;;;;;;;;;;;;;;;-0.94;83.53;98663.86;1614882;88;25487;-84
2022/01/07 00:15:06;;;;;;;;;;;;;;;-1.10;83.35;98668.89;1614259;88;22064;-84
2022/01/07 00:17:32;;;;;;;;;;;;;;;-1.17;83.24;98669.44;1615076;88;25981;-84
2022/01/07 00:19:58;;;;;;;;;;;;;;;-1.21;83.13;98672.95;1615207;88;24524;-84
2022/01/07 00:22:26;;;;;;;;;;;;;;;-1.28;83.06;98671.37;1615422;88;20245;-84
2022/01/07 00:24:52;;;;;;;;;;;;;;;-1.36;82.99;98674.50;1614762;87;25461;-84
2022/01/07 00:27:18;;;;;;;;;;;;;;;-1.40;82.92;98672.44;1615049;87;22278;-84
2022/01/07 00:29:44;;;;;;;;;;;;;;;-1.41;82.88;98673.30;1614818;87;26110;-84
2022/01/07 00:32:10;;;;;;;;;;;;;;;-1.39;82.88;98678.42;1615224;87;24510;-84
2022/01/07 00:34:36;;;;;;;;;;;;;;;-1.44;82.81;98677.66;1640612;86;20636;-87
2022/01/07 00:37:03;;;;;;;;;;;;;;;-1.49;82.76;98681.59;1610990;87;24742;-87
2022/01/07 00:39:29;;;;;;;;;;;;;;;-1.56;82.70;98689.41;1617104;87;21975;-88
2022/01/07 00:41:55;;;;;;;;;;;;;;;-1.67;82.58;98688.32;1610374;87;26060;-87
2022/01/07 00:44:21;;;;;;;;;;;;;;;-1.70;82.50;98692.23;1609838;87;24444;-87
2022/01/07 00:46:47;;;;;;;;;;;;;;;-1.67;82.48;98696.45;1610436;88;20308;-87
2022/01/07 00:49:20;;;;;;;;;;;;;;;-1.69;82.46;98692.62;1610948;89;20233;-87
2022/01/07 00:51:49;;;;;;;;;;;;;;;-1.73;82.47;98691.83;1623471;85;21974;-87
2022/01/07 00:54:16;;;;;;;;;;;;;;;-1.76;82.48;98689.77;1570115;90;26052;-85
2022/01/07 00:56:58;;;;;;;;;;;;;;;-1.77;82.52;98690.63;1587985;89;25238;-85
2022/01/07 00:59:24;;;;;;;;;;;;;;;-1.74;82.56;98698.27;1587696;89;20224;-86
2022/01/07 01:01:50;;;;;;;;;;;;;;;-1.71;82.62;98703.36;1592024;89;25404;-87
2022/01/07 01:04:17;;;;;;;;;;;;;;;-1.69;82.67;98702.88;1587876;89;22059;-87
2022/01/07 01:06:43;;;;;;;;;;;;;;;-1.65;82.75;98698.56;1590818;90;26063;-87
2022/01/07 01:09:09;;;;;;;;;;;;;;;-1.64;82.80;98702.39;1586663;89;24509;-85
2022/01/07 01:11:35;;;;;;;;;;;;;;;-1.65;82.88;98700.70;1605626;88;20246;-86
2022/01/07 01:14:01;;;;;;;;;;;;;;;-1.72;82.88;98699.95;1605941;87;24757;-86
2022/01/07 01:16:28;;;;;;;;;;;;;;;-1.70;82.95;98693.08;1605689;88;22014;-86
2022/01/07 01:18:54;;;;;;;;;;;;;;;-1.75;82.97;98692.31;1604073;89;26074;-88
2022/01/07 01:21:20;;;;;;;;;;;;;;;-1.64;83.08;98699.83;1609848;88;24521;-88
2022/01/07 01:23:46;;;;;;;;;;;;;;;-1.62;83.13;98689.52;1607930;88;20940;-87
2022/01/07 01:26:12;;;;;;;;;;;;;;;-1.62;83.18;98683.95;1602625;87;20311;-87
2022/01/07 01:28:43;;;;;;;;;;;;;;;-1.64;83.17;98683.16;1602007;89;22130;-87
2022/01/07 01:31:09;;;;;;;;;;;;;;;-1.63;83.16;98668.58;1602866;88;25990;-87
2022/01/07 01:33:35;;;;;;;;;;;;;;;-1.66;83.11;98676.34;1606874;88;24330;-87
2022/01/07 01:36:13;;;;;;;;;;;;;;;-1.73;83.07;98673.03;1602902;89;20247;-86
2022/01/07 01:38:36;;;;;;;;;;;;;;;-1.77;82.99;98669.67;1601328;89;24885;-86
2022/01/07 01:41:05;;;;;;;;;;;;;;;-1.76;82.98;98670.53;1605359;87;22072;-86
2022/01/07 01:43:32;;;;;;;;;;;;;;;-1.75;82.98;98669.66;1602841;88;26110;-86
2022/01/07 01:45:58;;;;;;;;;;;;;;;-1.83;82.94;98663.36;1604151;88;24596;-86
2022/01/07 01:48:24;;;;;;;;;;;;;;;-1.85;82.91;98659.12;1585256;88;20298;-86
2022/01/07 01:50:52;;;;;;;;;;;;;;;-1.88;82.90;98657.90;1603858;88;20772;-86
2022/01/07 01:53:18;;;;;;;;;;;;;;;-1.92;82.84;98662.67;1608616;87;22084;-86
2022/01/07 01:55:44;;;;;;;;;;;;;;;-1.93;82.84;98661.83;1599118;89;26041;-86
2022/01/07 01:58:11;;;;;;;;;;;;;;;-1.93;82.82;98665.67;1601346;88;24523;-85
2022/01/07 02:00:38;;;;;;;;;;;;;;;-1.97;82.78;98667.04;1606734;87;20346;-86
2022/01/07 02:03:04;;;;;;;;;;;;;;;-2.04;82.72;98664.16;1608989;87;24819;-86
2022/01/07 02:05:31;;;;;;;;;;;;;;;-2.02;82.73;98657.30;1609536;87;21930;-87
2022/01/07 02:07:57;;;;;;;;;;;;;;;-2.07;82.69;98660.37;1611154;87;26042;-87
2022/01/07 02:10:29;;;;;;;;;;;;;;;-2.14;82.66;98657.90;1610217;89;24499;-87
2022/01/07 02:12:58;;;;;;;;;;;;;;;-2.25;82.57;98657.22;1608504;87;20529;-87
2022/01/07 02:15:24;;;;;;;;;;;;;;;-2.29;82.53;98654.27;1640471;86;24851;-85
2022/01/07 02:17:51;;;;;;;;;;;;;;;-2.34;82.49;98660.33;1598637;86;22070;-85
2022/01/07 02:20:25;;;;;;;;;;;;;;;-2.37;82.45;98648.42;1626339;85;26050;-85
2022/01/07 02:22:53;;;;;;;;;;;;;;;-2.37;82.45;98652.27;1626579;87;24426;-84
2022/01/07 02:25:25;;;;;;;;;;;;;;;-2.37;82.48;98645.02;1626580;86;20535;-84
2022/01/07 02:27:55;;;;;;;;;;;;;;;-2.39;82.49;98656.56;1596810;88;24659;-84
2022/01/07 02:30:23;;;;;;;;;;;;;;;-2.41;82.51;98649.78;1618455;87;22062;-83
2022/01/07 02:32:49;;;;;;;;;;;;;;;-2.43;82.53;98651.51;1623716;86;26011;-83
2022/01/07 02:35:16;;;;;;;;;;;;;;;-2.44;82.57;98654.50;1626109;86;24661;-83
2022/01/07 02:37:42;;;;;;;;;;;;;;;-2.48;82.56;98651.58;1628031;86;20215;-84
2022/01/07 02:40:09;;;;;;;;;;;;;;;-2.54;82.55;98653.80;1624728;86;24766;-83
2022/01/07 02:42:35;;;;;;;;;;;;;;;-2.57;82.58;98655.56;1618429;86;22056;-82
2022/01/07 02:45:05;;;;;;;;;;;;;;;-2.54;82.62;98659.34;1618362;86;26066;-82
2022/01/07 02:47:49;;;;;;;;;;;;;;;-2.56;82.66;98664.48;1626161;86;25194;-82
2022/01/07 02:50:05;;;;;;;;;;;;;;;-2.58;82.66;98659.84;1617998;86;20247;-82
2022/01/07 02:52:30;;;;;;;;;;;;;;;-2.58;82.70;98661.55;1601067;87;24762;-82
2022/01/07 02:54:56;;;;;;;;;;;;;;;-2.58;82.78;98652.58;1609868;88;22010;-83
2022/01/07 02:57:22;;;;;;;;;;;;;;;-2.57;82.83;98662.81;1610386;87;26140;-83
2022/01/07 02:59:48;;;;;;;;;;;;;;;-2.55;82.89;98662.77;1610986;89;24431;-83
2022/01/07 03:02:15;;;;;;;;;;;;;;;-2.50;82.96;98663.55;1610279;87;20354;-83
2022/01/07 03:04:41;;;;;;;;;;;;;;;-2.49;83.04;98669.09;1611704;89;24993;-82
2022/01/07 03:07:07;;;;;;;;;;;;;;;-2.46;83.11;98669.50;1608855;89;21955;-82
2022/01/07 03:09:33;;;;;;;;;;;;;;;-2.48;83.16;98660.55;1586356;89;25966;-82
2022/01/07 03:11:59;;;;;;;;;;;;;;;-2.48;83.18;98661.83;1626290;86;25305;-83
2022/01/07 03:14:25;;;;;;;;;;;;;;;-2.48;83.20;98659.70;1590322;88;20222;-84
2022/01/07 03:16:51;;;;;;;;;;;;;;;-2.52;83.21;98658.91;1626783;86;20272;-84
2022/01/07 03:19:19;;;;;;;;;;;;;;;-2.58;83.17;98654.71;1621978;86;21898;-84
2022/01/07 03:21:46;;;;;;;;;;;;;;;-2.57;83.22;98656.41;1596543;87;26079;-84
2022/01/07 03:24:12;;;;;;;;;;;;;;;-2.54;83.28;98652.52;1606165;88;24480;-87
2022/01/07 03:26:38;;;;;;;;;;;;;;;-2.49;83.33;98653.72;1634716;86;20566;-86
2022/01/07 03:29:05;;;;;;;;;;;;;;;-2.48;83.39;98651.58;1589259;87;24800;-87
2022/01/07 03:31:31;;;;;;;;;;;;;;;-2.48;83.43;98643.89;1612285;87;22020;-87
2022/01/07 03:33:57;;;;;;;;;;;;;;;-2.47;83.43;98637.91;1613808;87;25973;-85
2022/01/07 03:36:23;;;;;;;;;;;;;;;-2.44;83.47;98645.53;1616877;86;24467;-85
2022/01/07 03:38:49;;;;;;;;;;;;;;;-2.50;83.46;98641.77;1616517;87;20250;-85
2022/01/07 03:41:15;;;;;;;;;;;;;;;-2.53;83.42;98641.83;1615127;87;25047;-85
2022/01/07 03:43:41;;;;;;;;;;;;;;;-2.56;83.40;98641.42;1610500;86;22052;-85
2022/01/07 03:46:08;;;;;;;;;;;;;;;-2.60;83.38;98643.63;1616978;86;27558;-82
2022/01/07 03:48:34;;;;;;;;;;;;;;;-2.66;83.31;98646.27;1610745;87;24515;-82
2022/01/07 03:51:00;;;;;;;;;;;;;;;-2.67;83.29;98643.72;1612840;87;20258;-82
2022/01/07 03:53:26;;;;;;;;;;;;;;;-2.72;83.19;98646.36;1606058;88;24706;-82
2022/01/07 03:55:53;;;;;;;;;;;;;;;-2.78;83.13;98643.87;1609875;87;22056;-82
2022/01/07 03:58:20;;;;;;;;;;;;;;;-2.84;83.07;98643.13;1613961;87;26023;-82
2022/01/07 04:00:46;;;;;;;;;;;;;;;-2.84;83.03;98644.41;1612434;87;25436;-82
2022/01/07 04:03:14;;;;;;;;;;;;;;;-2.82;83.05;98645.22;1616246;87;20234;-83
2022/01/07 04:05:40;;;;;;;;;;;;;;;-2.81;83.08;98653.32;1613430;87;24398;-88
2022/01/07 04:08:07;;;;;;;;;;;;;;;-2.78;83.15;98654.11;1614172;87;22036;-89
2022/01/07 04:10:33;;;;;;;;;;;;;;;-2.76;83.22;98654.95;1612465;87;26073;-83
2022/01/07 04:13:00;;;;;;;;;;;;;;;-2.78;83.26;98654.11;1595864;88;24327;-83
2022/01/07 04:15:26;;;;;;;;;;;;;;;-2.75;83.32;98654.52;1613206;87;20205;-82
2022/01/07 04:17:53;;;;;;;;;;;;;;;-2.74;83.37;98659.63;1615716;87;24803;-82
2022/01/07 04:20:20;;;;;;;;;;;;;;;-2.77;83.35;98663.50;1614678;87;22059;-86
2022/01/07 04:22:46;;;;;;;;;;;;;;;-2.81;83.32;98674.66;1614798;87;25515;-86
2022/01/07 04:25:17;;;;;;;;;;;;;;;-2.84;83.29;98673.86;1605797;88;24528;-87
2022/01/07 04:27:42;;;;;;;;;;;;;;;-2.88;83.26;98676.02;1604775;88;20207;-87
2022/01/07 04:30:08;;;;;;;;;;;;;;;-2.90;83.23;98671.38;1614854;87;24796;-83
2022/01/07 04:32:35;;;;;;;;;;;;;;;-2.93;83.21;98662.43;1613439;88;22101;-83
2022/01/07 04:35:05;;;;;;;;;;;;;;;-2.95;83.22;98671.44;1596625;88;25968;-83
2022/01/07 04:37:34;;;;;;;;;;;;;;;-2.97;83.21;98670.16;1615877;87;24593;-83
2022/01/07 04:39:59;;;;;;;;;;;;;;;-3.01;83.19;98673.64;1613145;87;20209;-82
2022/01/07 04:42:25;;;;;;;;;;;;;;;-3.01;83.19;98676.63;1613790;86;24769;-83
2022/01/07 04:44:52;;;;;;;;;;;;;;;-2.99;83.25;98668.47;1613945;87;21906;-83
2022/01/07 04:47:18;;;;;;;;;;;;;;;-2.97;83.29;98672.72;1616897;86;26065;-82
2022/01/07 04:49:44;;;;;;;;;;;;;;;-2.98;83.33;98661.22;1615868;87;24440;-83
2022/01/07 04:52:10;;;;;;;;;;;;;;;-2.99;83.36;98665.48;1613527;86;20250;-83
2022/01/07 04:54:36;;;;;;;;;;;;;;;-2.98;83.41;98666.33;1606844;87;24807;-83
2022/01/07 04:57:02;;;;;;;;;;;;;;;-2.99;83.44;98664.20;1615429;87;22059;-83
2022/01/07 04:59:28;;;;;;;;;;;;;;;-3.00;83.44;98664.25;1614602;87;25847;-83
2022/01/07 05:01:55;;;;;;;;;;;;;;;-3.04;83.43;98659.58;1603467;88;25237;-83
2022/01/07 05:04:21;;;;;;;;;;;;;;;-3.09;83.39;98662.63;1605671;88;20233;-82
2022/01/07 05:06:47;;;;;;;;;;;;;;;-3.13;83.37;98662.25;1585181;89;24814;-83
2022/01/07 05:09:20;;;;;;;;;;;;;;;-3.19;83.32;98659.77;1602633;88;21947;-83
2022/01/07 05:11:47;;;;;;;;;;;;;;;-3.23;83.26;98668.34;1599489;88;26050;-83
2022/01/07 05:14:13;;;;;;;;;;;;;;;-3.25;83.24;98664.95;1590057;90;24508;-82
2022/01/07 05:16:40;;;;;;;;;;;;;;;-3.25;83.25;98668.78;1607727;88;20558;-83
2022/01/07 05:19:06;;;;;;;;;;;;;;;-3.25;83.25;98663.67;1608269;88;24723;-83
2022/01/07 05:21:32;;;;;;;;;;;;;;;-3.26;83.26;98660.69;1581299;89;21984;-83
2022/01/07 05:23:58;;;;;;;;;;;;;;;-3.26;83.29;98659.41;1608291;88;26025;-83
2022/01/07 05:26:24;;;;;;;;;;;;;;;-3.25;83.32;98659.83;1610677;87;24521;-82
2022/01/07 05:28:50;;;;;;;;;;;;;;;-3.21;83.37;98658.07;1608890;87;20248;-83
2022/01/07 05:31:22;;;;;;;;;;;;;;;-3.18;83.42;98660.61;1613643;88;24797;-83
2022/01/07 05:33:48;;;;;;;;;;;;;;;-3.17;83.50;98658.05;1631699;86;22413;-83
2022/01/07 05:36:14;;;;;;;;;;;;;;;-3.21;83.52;98656.36;1611071;88;26018;-83
2022/01/07 05:38:40;;;;;;;;;;;;;;;-3.18;83.57;98651.23;1608720;88;24496;-87
2022/01/07 05:41:06;;;;;;;;;;;;;;;-3.16;83.61;98652.03;1606276;88;20258;-86
2022/01/07 05:43:33;;;;;;;;;;;;;;;-3.15;83.64;98642.22;1609564;88;24730;-86
2022/01/07 05:45:59;;;;;;;;;;;;;;;-3.14;83.69;98633.68;1614391;88;22808;-87
2022/01/07 05:48:25;;;;;;;;;;;;;;;-3.15;83.69;98632.41;1626152;87;26153;-87
2022/01/07 05:50:51;;;;;;;;;;;;;;;-3.13;83.73;98620.45;1599849;86;24534;-86
2022/01/07 05:53:17;;;;;;;;;;;;;;;-3.09;83.78;98624.66;1593647;89;20916;-87
2022/01/07 05:55:43;;;;;;;;;;;;;;;-3.08;83.81;98618.25;1620558;88;20222;-87
2022/01/07 05:58:10;;;;;;;;;;;;;;;-3.05;83.87;98613.51;1621922;87;22700;-86
2022/01/07 06:00:40;;;;;;;;;;;;;;;-3.07;83.86;98606.30;1622313;86;26008;-87
2022/01/07 06:03:07;;;;;;;;;;;;;;;-3.08;83.86;98605.45;1614044;87;20206;-87
2022/01/07 06:05:40;;;;;;;;;;;;;;;-3.10;83.87;98597.37;1617598;88;20327;-87
2022/01/07 06:08:06;;;;;;;;;;;;;;;-3.13;83.86;98596.99;1622297;87;24863;-87
2022/01/07 06:10:35;;;;;;;;;;;;;;;-3.13;83.84;98598.70;1624933;86;21894;-87
2022/01/07 06:13:02;;;;;;;;;;;;;;;-3.17;83.79;98604.73;1620154;87;25902;-87
2022/01/07 06:15:28;;;;;;;;;;;;;;;-3.18;83.78;98605.16;1584518;87;24445;-87
2022/01/07 06:17:54;;;;;;;;;;;;;;;-3.17;83.76;98611.98;1585992;87;20479;-82
2022/01/07 06:20:21;;;;;;;;;;;;;;;-3.20;83.75;98601.77;1585019;87;24833;-83
2022/01/07 06:22:47;;;;;;;;;;;;;;;-3.16;83.77;98608.53;1595290;89;21962;-82
2022/01/07 06:25:13;;;;;;;;;;;;;;;-3.16;83.79;98605.12;1597318;88;26101;-82
2022/01/07 06:27:40;;;;;;;;;;;;;;;-3.13;83.86;98608.94;1582547;87;24536;-83
2022/01/07 06:30:07;;;;;;;;;;;;;;;-3.09;83.89;98608.88;1583111;89;20224;-83
2022/01/07 06:32:33;;;;;;;;;;;;;;;-3.10;83.89;98602.05;1619989;86;24773;-84
2022/01/07 06:34:59;;;;;;;;;;;;;;;-3.09;83.91;98602.47;1624293;86;22179;-84
2022/01/07 06:37:26;;;;;;;;;;;;;;;-3.08;83.92;98601.61;1623895;86;26117;-84
2022/01/07 06:39:52;;;;;;;;;;;;;;;-3.09;83.89;98607.59;1592201;87;24442;-84
2022/01/07 06:42:18;;;;;;;;;;;;;;;-3.12;83.86;98601.68;1603657;86;20320;-84
2022/01/07 06:44:51;;;;;;;;;;;;;;;-3.13;83.84;98602.11;1604391;87;24820;-85
2022/01/07 06:47:17;;;;;;;;;;;;;;;-3.13;83.81;98603.39;1615559;87;22079;-85
2022/01/07 06:49:43;;;;;;;;;;;;;;;-3.14;83.79;98605.95;1611771;89;26072;-85
2022/01/07 06:52:09;;;;;;;;;;;;;;;-3.14;83.78;98600.41;1611733;89;24625;-85
2022/01/07 06:54:35;;;;;;;;;;;;;;;-3.18;83.74;98601.75;1610957;89;20474;-85
2022/01/07 06:57:02;;;;;;;;;;;;;;;-3.19;83.71;98600.05;1610254;87;24902;-85
2022/01/07 06:59:28;;;;;;;;;;;;;;;-3.15;83.73;98608.09;1610994;89;21956;-85
2022/01/07 07:01:54;;;;;;;;;;;;;;;-3.12;83.76;98611.48;1610588;89;25968;-83
2022/01/07 07:04:20;;;;;;;;;;;;;;;-3.04;83.79;98615.21;1618381;86;25231;-82
2022/01/07 07:06:47;;;;;;;;;;;;;;;-3.00;83.79;98610.48;1615988;87;20272;-82
2022/01/07 07:09:13;;;;;;;;;;;;;;;-2.97;83.82;98616.83;1611212;87;24839;-82
2022/01/07 07:11:39;;;;;;;;;;;;;;;-2.96;83.81;98610.85;1611184;87;22040;-82
2022/01/07 07:14:06;;;;;;;;;;;;;;;-2.95;83.79;98615.92;1613844;87;26050;-83
2022/01/07 07:16:32;;;;;;;;;;;;;;;-2.92;83.80;98606.53;1611179;87;24412;-83
2022/01/07 07:18:58;;;;;;;;;;;;;;;-2.91;83.75;98605.66;1613192;87;20503;-83
2022/01/07 07:21:24;;;;;;;;;;;;;;;-2.90;83.73;98613.77;1610281;88;25529;-83
2022/01/07 07:23:50;;;;;;;;;;;;;;;-2.89;83.71;98609.88;1608765;88;21817;-82
2022/01/07 07:26:16;;;;;;;;;;;;;;;-2.89;83.68;98611.16;1609193;88;25986;-83
2022/01/07 07:28:43;;;;;;;;;;;;;;;-2.89;83.61;98616.74;1609583;87;24401;-82
2022/01/07 07:31:13;;;;;;;;;;;;;;;-2.89;83.55;98611.63;1610929;87;20186;-82
2022/01/07 07:36:31;;;;;;;;;;;;;;;-2.84;83.49;98606.00;1610033;89;21414;-85
2022/01/07 07:39:00;;;;;;;;;;;;;;;-2.80;83.46;98605.08;1610824;87;26045;-85
2022/01/07 07:41:27;;;;;;;;;;;;;;;-2.79;83.45;98599.95;1610026;88;24510;-85
2022/01/07 07:43:53;;;;;;;;;;;;;;;-2.77;83.42;98596.06;1610978;88;20247;-85
2022/01/07 07:46:19;;;;;;;;;;;;;;;-2.73;83.39;98596.45;1631732;86;24564;-84
2022/01/07 07:48:47;;;;;;;;;;;;;;;-2.71;83.39;98595.98;1625197;87;21995;-83
2022/01/07 07:51:13;;;;;;;;;;;;;;;-2.71;83.38;98603.66;1628784;86;26045;-82
2022/01/07 07:53:44;;;;;;;;;;;;;;;-2.69;83.34;98607.06;1598646;89;21081;-83
2022/01/07 07:56:11;;;;;;;;;;;;;;;-2.66;83.29;98603.16;1615920;86;20819;-82
2022/01/07 07:58:37;;;;;;;;;;;;;;;-2.67;83.26;98605.30;1603515;87;24764;-83
2022/01/07 08:01:05;;;;;;;;;;;;;;;-2.64;83.24;98601.44;1617255;88;22007;-84
2022/01/07 08:03:32;;;;;;;;;;;;;;;-2.61;83.23;98603.94;1622451;88;26143;-83
2022/01/07 08:05:58;;;;;;;;;;;;;;;-2.58;83.17;98600.06;1618997;87;24643;-84
2022/01/07 08:08:24;;;;;;;;;;;;;;;-2.54;83.17;98596.58;1620668;86;20231;-84
2022/01/07 08:10:54;;;;;;;;;;;;;;;-2.48;83.16;98593.93;1619694;87;24751;-83
2022/01/07 08:13:31;;;;;;;;;;;;;;;-2.44;83.13;98594.28;1623559;86;22094;-83
2022/01/07 08:15:58;;;;;;;;;;;;;;;-2.47;83.12;98593.06;1622351;87;26089;-84
2022/01/07 08:18:26;;;;;;;;;;;;;;;-2.42;83.08;98590.00;1621830;87;24453;-85
2022/01/07 08:20:52;;;;;;;;;;;;;;;-2.36;83.05;98593.75;1632627;85;20542;-85
2022/01/07 08:23:19;;;;;;;;;;;;;;;-2.31;83.04;98604.77;1626027;86;24906;-85
2022/01/07 08:25:45;;;;;;;;;;;;;;;-2.25;83.04;98606.39;1624145;85;22162;-85
2022/01/07 08:28:12;;;;;;;;;;;;;;;-2.21;83.02;98599.91;1623685;86;26077;-84
2022/01/07 08:31:00;;;;;;;;;;;;;;;-2.12;82.99;98596.33;1624196;86;24547;-85
2022/01/07 08:36:01;;;;;;;;;;;;;;;-2.03;82.98;98594.06;1625777;87;25530;-85
2022/01/07 08:38:27;;;;;;;;;;;;;;;-1.98;82.98;98594.83;1618967;88;22068;-85
2022/01/07 08:41:02;;;;;;;;;;;;;;;-1.96;82.95;98594.34;1597285;88;26168;-85
2022/01/07 08:43:28;;;;;;;;;;;;;;;-1.94;82.90;98590.89;1602136;88;24462;-84
2022/01/07 08:45:54;;;;;;;;;;;;;;;-1.89;82.90;98586.52;1595079;88;20504;-86
2022/01/07 08:48:20;;;;;;;;;;;;;;;-1.86;82.88;98589.05;1617773;88;24763;-86
2022/01/07 08:50:46;;;;;;;;;;;;;;;-1.79;82.86;98589.33;1627255;87;22069;-86
2022/01/07 08:53:13;;;;;;;;;;;;;;;-1.73;82.78;98593.50;1624881;86;26211;-87
2022/01/07 08:55:40;;;;;;;;;;;;;;;-1.63;82.79;98589.89;1595997;88;24447;-84
2022/01/07 08:58:06;;;;;;;;;;;;;;;-1.58;82.77;98588.08;1610801;88;20314;-83
2022/01/07 09:00:32;;;;;;;;;;;;;;;-1.54;82.74;98584.61;1623578;86;24682;-84
2022/01/07 09:03:00;;;;;;;;;;;;;;;-1.50;82.71;98580.25;1624349;85;22122;-84
2022/01/07 09:05:30;;;;;;;;;;;;;;;-1.45;82.67;98580.56;1593613;88;26095;-84
2022/01/07 09:07:57;;;;;;;;;;;;;;;-1.41;82.62;98576.20;1615937;87;25189;-83
2022/01/07 09:10:23;;;;;;;;;;;;;;;-1.39;82.55;98583.45;1625914;86;20312;-84
2022/01/07 09:12:50;;;;;;;;;;;;;;;-1.38;82.47;98579.58;1626806;86;24818;-84
2022/01/07 09:15:17;;;;;;;;;;;;;;;-1.34;82.39;98572.22;1593358;89;21946;-84
2022/01/07 09:17:51;;;;;;;;;;;;;;;-1.27;82.37;98566.53;1606784;88;26076;-84
2022/01/07 09:20:17;;;;;;;;;;;;;;;-1.21;82.33;98561.70;1578549;89;24420;-87
2022/01/07 09:22:43;;;;;;;;;;;;;;;-1.15;82.28;98566.28;1593781;88;20334;-87
2022/01/07 09:25:09;;;;;;;;;;;;;;;-1.11;82.20;98563.20;1621450;86;20767;-87
2022/01/07 09:27:36;;;;;;;;;;;;;;;-1.06;82.14;98563.94;1624160;86;22050;-86
2022/01/07 09:30:03;;;;;;;;;;;;;;;-0.98;82.10;98564.61;1626002;87;26069;-87
2022/01/07 09:32:29;;;;;;;;;;;;;;;-0.91;82.07;98557.18;1595750;88;24485;-86
2022/01/07 09:34:55;;;;;;;;;;;;;;;-0.83;81.99;98554.02;1607519;88;20233;-87
2022/01/07 09:37:21;;;;;;;;;;;;;;;-0.79;81.90;98558.20;1580894;89;24744;-84
2022/01/07 09:39:47;;;;;;;;;;;;;;;-0.74;81.83;98561.50;1629313;87;21937;-83
2022/01/07 09:42:13;;;;;;;;;;;;;;;-0.70;81.75;98563.12;1622327;87;25991;-82
2022/01/07 09:44:41;;;;;;;;;;;;;;;-0.62;81.67;98563.80;1595332;89;24488;-82
2022/01/07 09:47:10;;;;;;;;;;;;;;;-0.56;81.59;98570.53;1619166;87;21103;-82
2022/01/07 09:49:36;;;;;;;;;;;;;;;-0.53;81.48;98565.30;1624442;86;24824;-83
2022/01/07 09:52:02;;;;;;;;;;;;;;;-0.47;81.37;98566.44;1624338;86;22064;-82
2022/01/07 09:54:28;;;;;;;;;;;;;;;-0.39;81.30;98568.41;1619304;86;26852;-83
2022/01/07 09:56:54;;;;;;;;;;;;;;;-0.35;81.22;98562.73;1599120;89;20892;-82
2022/01/07 09:59:20;;;;;;;;;;;;;;;-0.32;81.11;98560.93;1571426;90;21146;-82
2022/01/07 10:01:53;;;;;;;;;;;;;;;-0.30;80.99;98551.46;1600439;88;24822;-84
2022/01/07 10:04:33;;;;;;;;;;;;;;;-0.26;80.84;98547.92;1599923;88;22137;-83
2022/01/07 10:07:11;;;;;;;;;;;;;;;-0.27;80.67;98532.56;1603236;87;22363;-82
2022/01/07 10:09:41;;;;;;;;;;;;;;;-0.13;80.52;98555.75;1599686;88;24546;-83
2022/01/07 10:12:08;;;;;;;;;;;;;;;-0.06;80.43;98556.00;1597990;88;20529;-83
2022/01/07 10:14:36;;;;;;;;;;;;;;;0.00;80.35;98564.01;1603313;88;24803;-83
2022/01/07 10:17:03;;;;;;;;;;;;;;;0.02;80.25;98562.22;1588203;88;22887;-88
2022/01/07 10:19:37;;;;;;;;;;;;;;;0.05;80.13;98562.16;1584359;88;26224;-92
2022/01/07 10:22:05;;;;;;;;;;;;;;;0.08;80.02;98563.80;1589759;89;24440;-84
2022/01/07 10:24:31;;;;;;;;;;;;;;;0.12;79.86;98566.24;1591900;88;20350;-83
2022/01/07 10:27:14;;;;;;;;;;;;;;;0.18;79.76;98554.95;1588455;88;24920;-89
2022/01/07 10:29:41;;;;;;;;;;;;;;;0.21;79.63;98545.44;1589594;89;21962;-89
2022/01/07 10:32:26;;;;;;;;;;;;;;;0.20;79.46;98540.33;1590180;90;26113;-89
2022/01/07 10:35:03;;;;;;;;;;;;;;;0.22;79.34;98531.66;1590230;90;24526;-86
2022/01/07 10:37:30;;;;;;;;;;;;;;;0.29;79.19;98539.63;1586881;89;20232;-85
2022/01/07 10:39:56;;;;;;;;;;;;;;;0.34;79.07;98533.06;1588620;88;24946;-85
2022/01/07 10:42:22;;;;;;;;;;;;;;;0.36;78.96;98534.72;1590255;90;21922;-85
2022/01/07 10:44:59;;;;;;;;;;;;;;;0.43;78.91;98534.11;1587216;88;26149;-86
2022/01/07 10:47:25;;;;;;;;;;;;;;;0.49;78.81;98524.94;1607276;86;25295;-85
2022/01/07 10:49:53;;;;;;;;;;;;;;;0.49;78.69;98526.22;1579372;89;20263;-85
2022/01/07 10:52:22;;;;;;;;;;;;;;;0.54;78.60;98525.65;1592285;89;25347;-85
2022/01/07 10:55:07;;;;;;;;;;;;;;;0.56;78.44;98525.14;1599830;88;22038;-85
2022/01/07 10:57:38;;;;;;;;;;;;;;;0.56;78.27;98526.87;1622922;86;26100;-83
2022/01/07 11:00:11;;;;;;;;;;;;;;;0.56;78.10;98525.14;1622849;87;24564;-85
2022/01/07 11:02:37;;;;;;;;;;;;;;;0.61;77.96;98521.99;1621112;86;20727;-83
2022/01/07 11:05:04;;;;;;;;;;;;;;;0.62;77.77;98514.67;1628482;86;24880;-83
2022/01/07 11:07:31;;;;;;;;;;;;;;;0.65;77.63;98514.60;1629471;86;22095;-83
2022/01/07 11:09:57;;;;;;;;;;;;;;;0.67;77.50;98513.25;1621640;86;26549;-83
2022/01/07 11:12:25;;;;;;;;;;;;;;;0.67;77.38;98501.66;1628336;85;24511;-84
2022/01/07 11:14:51;;;;;;;;;;;;;;;0.73;77.28;98490.73;1624845;86;20250;-85
2022/01/07 11:17:21;;;;;;;;;;;;;;;0.83;77.24;98497.73;1627914;86;24978;-85
2022/01/07 11:19:54;;;;;;;;;;;;;;;0.86;77.15;98489.09;1607247;87;22149;-86
2022/01/07 11:22:22;;;;;;;;;;;;;;;0.86;76.98;98483.50;1621706;86;26018;-86
2022/01/07 11:24:54;;;;;;;;;;;;;;;0.92;76.88;98481.18;1609472;89;24470;-87
2022/01/07 11:27:22;;;;;;;;;;;;;;;0.94;76.76;98472.50;1631581;86;20236;-86
2022/01/07 11:29:49;;;;;;;;;;;;;;;0.98;76.69;98467.67;1633070;86;25846;-86
2022/01/07 11:32:26;;;;;;;;;;;;;;;1.03;76.57;98468.37;1597830;88;23426;-86
2022/01/07 11:34:53;;;;;;;;;;;;;;;1.09;76.48;98462.19;1596571;87;26081;-87
2022/01/07 11:37:36;;;;;;;;;;;;;;;1.11;76.37;98461.23;1624773;86;24460;-88
2022/01/07 11:40:03;;;;;;;;;;;;;;;1.12;76.23;98454.34;1615233;88;20287;-87
2022/01/07 11:42:40;;;;;;;;;;;;;;;1.20;76.11;98463.50;1616067;87;24769;-86
2022/01/07 11:45:28;;;;;;;;;;;;;;;1.18;75.94;98462.73;1616372;87;22713;-87
2022/01/07 11:47:59;;;;;;;;;;;;;;;1.19;75.80;98463.13;1625762;85;26043;-87
2022/01/07 11:50:26;;;;;;;;;;;;;;;1.17;75.62;98458.90;1590464;88;24445;-86
2022/01/07 11:53:04;;;;;;;;;;;;;;;1.26;75.60;98463.31;1608998;87;20243;-89
2022/01/07 11:55:35;;;;;;;;;;;;;;;1.35;75.55;98451.03;1609036;87;24775;-88
2022/01/07 11:58:04;;;;;;;;;;;;;;;1.41;75.44;98441.80;1610648;87;22053;-84
2022/01/07 12:00:49;;;;;;;;;;;;;;;1.47;75.28;98447.61;1609823;89;25999;-84
2022/01/07 12:03:38;;;;;;;;;;;;;;;1.50;75.12;98445.36;1623869;86;24739;-84
2022/01/07 12:06:20;;;;;;;;;;;;;;;1.53;74.97;98443.95;1612768;87;20239;-87
2022/01/07 12:09:00;;;;;;;;;;;;;;;1.54;74.85;98440.48;1595315;88;25389;-88
2022/01/07 12:11:27;;;;;;;;;;;;;;;1.52;74.70;98446.16;1611202;89;21976;-84
2022/01/07 12:13:54;;;;;;;;;;;;;;;1.54;74.59;98447.78;1609562;89;26060;-84
2022/01/07 12:16:20;;;;;;;;;;;;;;;1.58;74.50;98439.03;1610673;87;24622;-83
2022/01/07 12:18:46;;;;;;;;;;;;;;;1.65;74.39;98438.39;1611015;87;20355;-83
2022/01/07 12:21:13;;;;;;;;;;;;;;;1.74;74.36;98438.09;1611417;87;25421;-83
2022/01/07 12:23:42;;;;;;;;;;;;;;;1.83;74.34;98439.50;1604646;89;20230;-84
2022/01/07 12:26:09;;;;;;;;;;;;;;;1.91;74.29;98431.87;1622156;87;25987;-83
2022/01/07 12:28:36;;;;;;;;;;;;;;;2.01;74.22;98433.26;1594513;88;24546;-83
2022/01/07 12:31:09;;;;;;;;;;;;;;;2.02;74.12;98425.04;1616129;88;20492;-88
2022/01/07 12:33:52;;;;;;;;;;;;;;;2.10;74.05;98423.89;1613648;86;24800;-87
2022/01/07 12:36:31;;;;;;;;;;;;;;;2.15;73.92;98425.45;1614033;88;21988;-84
2022/01/07 12:38:59;;;;;;;;;;;;;;;2.22;73.76;98416.15;1613956;88;26185;-84
2022/01/07 12:41:26;;;;;;;;;;;;;;;2.25;73.55;98412.15;1612373;88;25276;-88
2022/01/07 12:44:13;;;;;;;;;;;;;;;2.26;73.40;98411.26;1615451;87;20303;-87
2022/01/07 12:46:40;;;;;;;;;;;;;;;2.26;73.23;98415.58;1615124;86;24968;-88
2022/01/07 12:49:08;;;;;;;;;;;;;;;2.30;73.12;98402.48;1611783;88;22215;-88
2022/01/07 12:51:35;;;;;;;;;;;;;;;2.34;73.01;98405.38;1595815;88;25921;-87
2022/01/07 12:54:03;;;;;;;;;;;;;;;2.38;72.91;98405.64;1613574;86;24515;-87
2022/01/07 12:56:37;;;;;;;;;;;;;;;2.34;72.70;98401.95;1620000;88;20241;-88